Time;durP1;ratioP1;P1;durP2;ratioP2;P2;SDS_P1;SDS_P2;PMS_P1;PMS_P2;Temp;Humidity;BMP_temperature;BMP_pressure;BME280_temperature;BME280_humidity;BME280_pressure;Samples;Min_cycle;Max_cycle;Signal;HPM_P1;HPM_P2
2023/09/15 00:02:14;;;;;;;8.60;2.50;;;;;;;12.93;84.09;101081.66;4916471;29;20135;-69
2023/09/15 00:05:18;;;;;;;8.18;1.83;;;;;;;12.95;84.05;101087.66;4916764;29;20095;-69
2023/09/15 00:08:21;;;;;;;4.50;1.80;;;;;;;12.88;84.03;101086.28;4916609;29;20059;-69
2023/09/15 00:11:24;;;;;;;3.85;1.88;;;;;;;12.82;84.34;101084.81;4916522;29;20043;-69
2023/09/15 00:14:28;;;;;;;7.78;1.65;;;;;;;12.70;84.99;101080.22;4916428;29;20573;-68
2023/09/15 00:17:31;;;;;;;3.35;1.92;;;;;;;12.65;84.81;101077.84;4916362;29;20170;-69
2023/09/15 00:20:34;;;;;;;6.63;1.90;;;;;;;12.67;84.70;101078.63;4916159;29;20059;-69
2023/09/15 00:23:38;;;;;;;8.77;2.17;;;;;;;12.70;84.73;101077.59;4916347;29;20076;-68
2023/09/15 00:26:43;;;;;;;6.47;1.90;;;;;;;12.63;84.94;101077.06;4916385;29;20574;-68
2023/09/15 00:29:46;;;;;;;4.35;1.90;;;;;;;12.57;85.33;101085.25;4916325;29;20099;-68
2023/09/15 00:32:50;;;;;;;5.38;1.80;;;;;;;12.32;85.88;101081.28;4916226;29;20084;-68
2023/09/15 00:35:53;;;;;;;5.25;1.88;;;;;;;12.27;86.97;101075.41;4916329;29;20047;-68
2023/09/15 00:38:57;;;;;;;6.78;1.52;;;;;;;12.41;86.08;101073.84;4916296;29;20517;-69
2023/09/15 00:42:01;;;;;;;10.00;1.50;;;;;;;12.46;85.40;101067.44;4904424;29;20127;-69
2023/09/15 00:45:05;;;;;;;8.90;2.40;;;;;;;12.34;85.46;101074.16;4904691;29;20196;-69
2023/09/15 00:48:09;;;;;;;7.53;1.60;;;;;;;12.22;86.49;101066.06;4919785;29;20047;-69
2023/09/15 00:51:12;;;;;;;3.30;1.60;;;;;;;12.36;85.81;101068.00;4908004;29;20527;-69
2023/09/15 00:54:16;;;;;;;6.10;1.50;;;;;;;12.38;85.27;101072.25;4908160;29;20047;-69
2023/09/15 00:57:19;;;;;;;8.00;1.50;;;;;;;12.24;85.90;101070.31;4919653;29;20054;-69
2023/09/15 01:00:23;;;;;;;5.97;1.50;;;;;;;12.28;85.74;101071.00;4919561;29;20175;-69
2023/09/15 01:03:30;;;;;;;3.50;1.90;;;;;;;12.18;86.38;101059.28;4907785;29;20051;-69
2023/09/15 01:06:36;;;;;;;5.03;1.90;;;;;;;12.08;86.53;101061.53;4907605;29;20079;-69
2023/09/15 01:09:41;;;;;;;6.28;1.70;;;;;;;11.80;88.00;101064.63;4907702;29;20047;-69
2023/09/15 01:12:45;;;;;;;;;;;;;;;11.81;88.30;101066.34;4919622;29;20043;-69
2023/09/15 01:16:09;;;;;;;4.47;1.67;;;;;;;11.92;87.78;101061.44;4919062;29;20037;-70
2023/09/15 01:19:21;;;;;;;4.88;1.70;;;;;;;12.10;86.20;101064.94;4907529;29;20067;-69
2023/09/15 01:38:00;;;;;;;4.30;1.70;;;;;;;11.80;87.75;101054.97;4918708;29;20111;-70
2023/09/15 01:41:04;;;;;;;5.13;1.77;;;;;;;11.92;87.08;101053.56;4919013;29;20175;-69
2023/09/15 01:44:07;;;;;;;3.25;1.63;;;;;;;12.13;85.66;101054.28;4918823;29;20066;-70
2023/09/15 01:47:18;;;;;;;3.70;1.63;;;;;;;12.15;85.15;101052.41;4918732;29;20479;-70
2023/09/15 01:50:21;;;;;;;5.82;1.38;;;;;;;12.04;84.88;101050.34;4918758;29;20628;-69
2023/09/15 01:53:26;;;;;;;3.30;1.38;;;;;;;11.96;85.32;101054.25;4918995;29;20131;-69
2023/09/15 01:56:29;;;;;;;7.25;1.30;;;;;;;12.03;84.76;101059.16;4918473;29;20172;-70
2023/09/15 01:59:34;;;;;;;5.13;1.33;;;;;;;12.03;83.85;101051.28;4907055;29;20055;-70
2023/09/15 02:02:37;;;;;;;3.45;1.20;;;;;;;11.95;83.94;101055.19;4906715;29;20144;-70
2023/09/15 02:05:41;;;;;;;2.90;1.23;;;;;;;11.91;84.11;101051.88;4906963;29;20051;-70
2023/09/15 02:08:44;;;;;;;;;;;;;;;11.88;83.97;101045.94;4907127;29;20051;-67
2023/09/15 02:11:47;;;;;;;3.08;1.35;;;;;;;11.83;84.04;101046.97;4906555;29;20277;-67
2023/09/15 02:14:51;;;;;;;2.95;1.38;;;;;;;11.89;83.54;101047.63;4906915;29;20574;-67
2023/09/15 02:17:58;;;;;;;4.85;1.05;;;;;;;11.83;83.33;101049.59;4906482;29;20414;-67
2023/09/15 02:21:03;;;;;;;4.22;1.33;;;;;;;11.84;83.07;101046.09;4918261;29;20071;-67
2023/09/15 02:24:07;;;;;;;3.17;1.35;;;;;;;11.62;83.96;101046.28;4906499;29;20051;-67
2023/09/15 02:27:10;;;;;;;3.78;1.48;;;;;;;11.62;84.40;101053.28;4918179;29;20087;-67
2023/09/15 02:30:13;;;;;;;2.75;1.13;;;;;;;11.59;84.19;101054.28;4906476;29;20095;-68
2023/09/15 02:33:16;;;;;;;3.08;1.13;;;;;;;11.62;83.52;101053.28;4917872;29;20524;-68
2023/09/15 02:36:21;;;;;;;3.28;1.33;;;;;;;11.60;83.17;101055.13;4906376;29;20414;-68
2023/09/15 02:39:24;;;;;;;3.25;1.52;;;;;;;11.57;83.26;101057.88;4918095;29;20115;-68
2023/09/15 02:42:27;;;;;;;6.57;1.38;;;;;;;11.53;83.24;101051.09;4906098;29;20099;-68
2023/09/15 02:45:35;;;;;;;3.25;1.52;;;;;;;11.33;84.35;101050.28;4917679;29;20055;-67
2023/09/15 02:48:38;;;;;;;2.67;1.33;;;;;;;11.25;85.22;101052.38;4898646;29;20051;-67
2023/09/15 02:51:41;;;;;;;5.47;1.45;;;;;;;11.29;85.06;101051.31;4905923;29;20095;-67
2023/09/15 02:54:47;;;;;;;3.40;1.40;;;;;;;11.38;84.58;101047.44;4905823;29;20051;-67
2023/09/15 02:57:51;;;;;;;3.78;1.40;;;;;;;11.32;84.35;101048.56;4917394;29;20050;-68
2023/09/15 03:00:55;;;;;;;3.90;1.30;;;;;;;11.27;84.87;101047.94;4917356;29;20051;-67
2023/09/15 03:03:59;;;;;;;4.60;1.92;;;;;;;11.23;84.74;101038.53;4905701;29;20044;-68
2023/09/15 03:07:03;;;;;;;2.08;0.95;;;;;;;11.37;84.51;101035.25;4905567;29;20106;-67
2023/09/15 03:10:07;;;;;;;;;;;;;;;11.35;83.83;101035.31;4905481;29;20095;-67
2023/09/15 03:13:11;;;;;;;6.55;1.00;;;;;;;11.38;83.80;101032.56;4917132;29;19931;-68
2023/09/15 03:16:14;;;;;;;1.98;0.88;;;;;;;11.41;83.92;101040.28;4916994;29;20050;-68
2023/09/15 03:19:19;;;;;;;2.67;1.00;;;;;;;11.35;83.61;101037.94;4905097;29;20099;-67
2023/09/15 03:22:22;;;;;;;3.72;1.48;;;;;;;11.34;83.94;101028.41;4905184;29;20046;-68
2023/09/15 03:25:26;;;;;;;3.85;1.50;;;;;;;11.26;82.92;101035.75;4905597;29;20067;-69
2023/09/15 03:28:35;;;;;;;4.20;1.05;;;;;;;11.20;83.27;101025.59;4916975;29;20467;-68
2023/09/15 03:31:38;;;;;;;2.58;1.10;;;;;;;11.04;83.56;101033.31;4916823;29;20047;-68
2023/09/15 03:34:43;;;;;;;3.53;1.00;;;;;;;10.94;83.13;101030.28;4905082;29;20138;-68
2023/09/15 03:37:46;;;;;;;3.03;1.10;;;;;;;10.80;84.16;101023.97;4905179;29;20111;-68
2023/09/15 03:40:50;;;;;;;1.85;0.90;;;;;;;10.87;83.96;101020.97;4905061;29;20114;-68
2023/09/15 03:43:55;;;;;;;5.18;1.40;;;;;;;10.91;83.23;101029.53;4916745;29;20044;-69
2023/09/15 03:46:58;;;;;;;2.78;1.15;;;;;;;11.00;82.77;101021.28;4904918;29;20120;-69
2023/09/15 03:50:03;;;;;;;;;;;;;;;11.00;83.15;101030.88;4905433;29;20127;-69
2023/09/15 03:53:09;;;;;;;2.25;1.15;;;;;;;10.83;83.00;101032.50;4904842;29;19929;-69
2023/09/15 03:56:13;;;;;;;7.15;1.30;;;;;;;10.83;83.41;101022.03;4904966;29;20066;-69
2023/09/15 03:59:16;;;;;;;2.78;1.23;;;;;;;10.84;84.15;101025.50;4904853;29;20418;-69
2023/09/15 04:02:19;;;;;;;;;;;;;;;10.96;84.08;101029.34;4905133;29;20099;-68
2023/09/15 04:05:22;;;;;;;3.47;1.40;;;;;;;10.88;84.49;101027.94;4897727;29;20022;-68
2023/09/15 04:08:26;;;;;;;4.03;1.30;;;;;;;10.98;84.07;101022.28;4897901;29;20112;-68
2023/09/15 04:11:31;;;;;;;5.05;1.40;;;;;;;11.01;83.91;101022.97;4885822;29;20165;-69
2023/09/15 04:14:37;;;;;;;3.63;1.40;;;;;;;11.06;83.82;101025.38;4886017;29;20051;-68
2023/09/15 04:17:41;;;;;;;4.47;1.92;;;;;;;11.04;84.47;101032.44;4897408;29;20108;-68
2023/09/15 04:20:44;;;;;;;5.25;2.40;;;;;;;10.99;85.00;101029.19;4888230;29;20063;-68
2023/09/15 04:23:48;;;;;;;5.32;2.13;;;;;;;11.00;85.59;101026.50;4889767;29;20051;-68
2023/09/15 04:26:52;;;;;;;7.03;2.65;;;;;;;11.02;85.84;101035.13;4889771;29;20051;-68
2023/09/15 04:29:56;;;;;;;8.15;3.10;;;;;;;11.07;85.98;101024.44;4896131;29;20052;-69
2023/09/15 04:33:06;;;;;;;11.48;3.25;;;;;;;11.05;86.85;101026.31;4889974;29;20095;-69
2023/09/15 04:36:09;;;;;;;3.40;2.10;;;;;;;11.00;86.57;101033.50;4889507;29;20542;-69
2023/09/15 04:39:14;;;;;;;6.40;1.70;;;;;;;11.01;85.55;101032.56;4889533;29;20047;-69
2023/09/15 04:42:18;;;;;;;4.13;2.00;;;;;;;10.91;86.67;101030.41;4889440;29;20051;-69
2023/09/15 04:45:23;;;;;;;5.40;2.13;;;;;;;10.79;86.77;101028.34;4889348;29;20047;-69
2023/09/15 04:48:27;;;;;;;4.90;2.00;;;;;;;10.83;87.05;101039.50;4889427;29;20052;-69
2023/09/15 04:51:32;;;;;;;3.72;2.30;;;;;;;10.85;87.71;101035.06;4889326;29;20043;-69
2023/09/15 04:54:35;;;;;;;4.05;2.00;;;;;;;10.99;86.58;101029.19;4900913;29;20047;-70
2023/09/15 04:57:38;;;;;;;3.10;1.58;;;;;;;10.96;85.78;101035.41;4889474;29;20059;-69
2023/09/15 05:00:42;;;;;;;3.78;1.75;;;;;;;10.84;86.53;101042.03;4888979;29;20059;-71
2023/09/15 05:03:45;;;;;;;;;;;;;;;10.83;87.22;101037.75;4888925;29;20047;-69
2023/09/15 05:06:48;;;;;;;3.42;1.73;;;;;;;10.94;86.48;101038.13;4887530;29;19942;-69
2023/09/15 05:09:53;;;;;;;5.85;1.60;;;;;;;11.05;85.78;101042.00;4890833;29;20463;-71
2023/09/15 05:12:58;;;;;;;4.50;1.30;;;;;;;10.90;86.57;101046.16;4902709;29;20063;-72
2023/09/15 05:16:04;;;;;;;4.18;1.88;;;;;;;10.88;86.56;101033.16;4904045;29;20382;-72
2023/09/15 05:19:09;;;;;;;2.90;1.80;;;;;;;10.88;86.27;101041.00;4905597;29;20525;-70
2023/09/15 05:22:12;;;;;;;2.10;1.40;;;;;;;10.96;85.80;101034.56;4905779;29;20051;-68
2023/09/15 05:25:16;;;;;;;5.03;1.52;;;;;;;11.00;85.61;101036.13;4905601;29;20100;-71
2023/09/15 05:28:19;;;;;;;3.45;1.90;;;;;;;10.96;86.03;101042.44;4894837;29;20047;-75
2023/09/15 05:31:25;;;;;;;7.35;1.80;;;;;;;11.03;87.65;101046.44;4916453;29;20051;-70
2023/09/15 05:34:29;;;;;;;3.95;1.73;;;;;;;10.92;86.58;101047.78;4905252;29;20038;-71
2023/09/15 05:37:32;;;;;;;3.78;1.63;;;;;;;10.98;86.53;101045.84;4905652;29;20154;-72
2023/09/15 05:40:36;;;;;;;3.72;1.63;;;;;;;11.08;85.88;101050.56;4917481;29;20087;-70
2023/09/15 05:43:42;;;;;;;3.28;1.95;;;;;;;11.07;85.71;101048.88;4894517;29;20055;-71
2023/09/15 05:46:47;;;;;;;6.75;1.60;;;;;;;10.98;86.28;101044.06;4917636;29;20043;-72
2023/09/15 05:49:50;;;;;;;5.05;1.98;;;;;;;10.87;86.71;101047.16;4917562;29;20126;-71
2023/09/15 05:52:54;;;;;;;4.72;1.30;;;;;;;10.97;86.17;101041.50;4916943;29;20070;-71
2023/09/15 05:55:57;;;;;;;3.53;1.60;;;;;;;10.99;86.10;101042.28;4916833;29;20095;-70
2023/09/15 05:59:01;;;;;;;4.30;1.48;;;;;;;11.06;86.75;101041.91;4916774;29;20047;-70
2023/09/15 06:02:04;;;;;;;;;;;;;;;11.15;85.94;101040.66;4917638;29;20054;-70
2023/09/15 06:05:09;;;;;;;2.40;1.20;;;;;;;11.02;86.73;101050.00;4916701;29;19926;-68
2023/09/15 06:08:12;;;;;;;6.65;1.52;;;;;;;11.01;86.20;101049.16;4917055;29;20585;-69
2023/09/15 06:11:16;;;;;;;3.22;1.55;;;;;;;10.87;87.55;101047.16;4916657;29;20470;-69
2023/09/15 06:14:19;;;;;;;8.40;1.45;;;;;;;10.96;87.21;101050.28;4916754;29;20047;-70
2023/09/15 06:17:23;;;;;;;3.10;1.77;;;;;;;10.84;86.62;101047.28;4916574;29;20102;-70
2023/09/15 06:20:30;;;;;;;7.97;1.33;;;;;;;10.94;87.22;101040.75;4916327;29;20172;-70
2023/09/15 06:23:33;;;;;;;3.08;1.80;;;;;;;10.88;87.79;101043.63;4916414;29;20455;-70
2023/09/15 06:26:40;;;;;;;5.93;1.80;;;;;;;10.91;87.80;101043.50;4916255;29;20067;-70
2023/09/15 06:29:44;;;;;;;2.60;1.13;;;;;;;10.97;87.89;101044.09;4916462;29;20470;-70
2023/09/15 06:32:47;;;;;;;6.65;1.73;;;;;;;10.84;88.18;101043.81;4916479;29;20047;-69
2023/09/15 06:35:50;;;;;;;;;;;;;;;10.88;88.51;101043.63;4915634;29;20099;-70
2023/09/15 06:38:54;;;;;;;4.45;1.70;;;;;;;10.96;88.55;101050.28;4914726;29;20380;-70
2023/09/15 06:41:57;;;;;;;6.18;1.50;;;;;;;11.07;88.29;101042.75;4916004;29;20051;-70
2023/09/15 06:45:00;;;;;;;;;;;;;;;11.01;88.01;101049.16;4916535;29;20119;-70
2023/09/15 06:48:04;;;;;;;6.22;1.17;;;;;;;11.10;87.90;101059.19;4916086;29;20030;-70
2023/09/15 06:51:07;;;;;;;2.22;1.25;;;;;;;11.18;87.83;101061.44;4916246;29;20055;-70
2023/09/15 06:54:12;;;;;;;2.88;1.38;;;;;;;11.17;88.37;101062.38;4915777;29;20107;-70
2023/09/15 06:57:15;;;;;;;3.85;2.08;;;;;;;11.32;88.17;101059.03;4915867;29;20594;-70
2023/09/15 07:00:19;;;;;;;5.15;1.80;;;;;;;11.37;87.28;101059.69;4915577;29;20087;-70
2023/09/15 07:03:23;;;;;;;5.22;1.90;;;;;;;11.32;87.01;101056.41;4915567;29;20054;-70
2023/09/15 07:06:27;;;;;;;2.97;2.20;;;;;;;11.28;87.29;101046.16;4915323;29;20090;-70
2023/09/15 07:09:30;;;;;;;3.88;2.20;;;;;;;11.13;88.26;101048.56;4915615;29;20526;-70
2023/09/15 07:12:34;;;;;;;4.63;1.70;;;;;;;11.20;88.90;101048.28;4915690;29;20099;-63
2023/09/15 07:15:38;;;;;;;9.02;2.50;;;;;;;11.54;88.30;101048.38;4916204;29;20514;-64
2023/09/15 07:18:43;;;;;;;4.57;1.90;;;;;;;11.66;88.59;101052.19;4915451;29;20566;-69
2023/09/15 07:21:47;;;;;;;3.42;2.15;;;;;;;11.73;87.51;101047.50;4911805;29;20055;-69
2023/09/15 07:29:12;;;;;;;8.85;2.70;;;;;;;11.56;88.75;101043.09;4928528;29;20050;-69
2023/09/15 07:32:50;;;;;;;4.05;2.88;;;;;;;11.60;89.04;101042.03;4935800;29;20548;-68
2023/09/15 07:36:52;;;;;;;5.95;3.25;;;;;;;11.71;89.33;101039.75;4934926;29;20074;-68
2023/09/15 07:40:00;;;;;;;6.80;3.30;;;;;;;11.94;88.32;101038.63;4935181;29;20432;-69
2023/09/15 07:43:04;;;;;;;4.72;3.00;;;;;;;12.10;87.40;101030.84;4935344;29;20461;-69
2023/09/15 07:46:09;;;;;;;4.78;3.08;;;;;;;12.20;87.36;101031.22;4934952;29;20082;-69
2023/09/15 07:49:23;;;;;;;7.28;3.55;;;;;;;12.24;87.48;101017.03;4935565;29;20117;-70
2023/09/15 07:52:29;;;;;;;7.20;4.25;;;;;;;12.31;87.39;101016.63;4923370;29;20042;-70
2023/09/15 07:55:39;;;;;;;6.43;4.03;;;;;;;12.33;88.46;101012.16;4934786;29;20054;-70
2023/09/15 07:58:48;;;;;;;8.40;4.70;;;;;;;12.32;88.72;101017.50;4934253;29;20062;-69
2023/09/15 08:02:16;;;;;;;9.88;4.70;;;;;;;12.55;88.26;101016.28;4934427;29;20087;-69
2023/09/15 08:05:24;;;;;;;7.65;4.70;;;;;;;12.61;88.92;101015.97;4933708;29;20167;-68
2023/09/15 08:08:27;;;;;;;8.68;4.53;;;;;;;12.75;87.21;101016.06;4934009;29;20568;-67
2023/09/15 08:11:34;;;;;;;7.85;4.38;;;;;;;12.95;86.79;101008.91;4934359;29;20066;-69
2023/09/15 08:14:38;;;;;;;9.70;4.43;;;;;;;12.98;85.28;101003.47;4933535;29;20134;-68
2023/09/15 08:17:41;;;;;;;6.95;4.35;;;;;;;13.00;86.43;101006.88;4933350;29;20518;-68
2023/09/15 08:20:48;;;;;;;8.23;4.43;;;;;;;12.99;85.90;101000.78;4905122;29;20078;-67
2023/09/15 08:23:52;;;;;;;7.25;3.90;;;;;;;12.77;88.58;101001.09;4915003;29;20051;-69
2023/09/15 08:26:59;;;;;;;7.68;4.45;;;;;;;13.01;88.13;100998.06;4884233;29;20104;-66
2023/09/15 08:30:26;;;;;;;5.57;4.20;;;;;;;13.21;86.65;100994.38;4895165;29;20514;-65
2023/09/15 08:33:30;;;;;;;8.27;4.63;;;;;;;13.48;85.77;100991.97;4910777;29;20068;-71
2023/09/15 08:36:38;;;;;;;10.35;4.93;;;;;;;13.58;84.60;100987.03;4915190;29;20055;-82
2023/09/15 08:39:42;;;;;;;10.32;5.38;;;;;;;13.87;83.64;100998.50;4933596;29;20170;-71
2023/09/15 08:42:46;;;;;;;7.65;4.85;;;;;;;14.06;83.40;100987.75;4921948;29;20087;-70
2023/09/15 08:46:06;;;;;;;8.18;4.53;;;;;;;13.99;82.92;100989.03;4933244;29;20127;-72
2023/09/15 08:49:15;;;;;;;7.55;4.47;;;;;;;14.25;83.53;100987.50;4895983;29;20047;-70
2023/09/15 08:52:21;;;;;;;9.63;4.80;;;;;;;14.15;81.54;100987.19;4895482;29;20074;-70
2023/09/15 08:55:28;;;;;;;7.32;4.57;;;;;;;14.33;81.32;100987.88;4884232;29;20055;-71
2023/09/15 08:58:33;;;;;;;7.75;5.07;;;;;;;13.93;85.43;100992.88;4895312;29;20187;-71
2023/09/15 09:01:37;;;;;;;12.55;5.80;;;;;;;13.79;85.48;100987.59;4893140;29;20083;-74
2023/09/15 09:04:41;;;;;;;7.75;4.75;;;;;;;13.73;87.21;100981.75;4894544;29;20074;-70
2023/09/15 09:07:46;;;;;;;10.68;4.65;;;;;;;13.86;87.11;100981.03;4896723;29;20364;-69
2023/09/15 09:10:50;;;;;;;8.85;4.57;;;;;;;13.67;89.37;100976.84;4898281;29;20099;-69
2023/09/15 09:13:53;;;;;;;8.57;3.90;;;;;;;14.02;87.66;100979.19;4915490;29;20051;-69
2023/09/15 09:16:58;;;;;;;8.63;4.82;;;;;;;14.01;85.60;100969.63;4916676;29;20063;-69
2023/09/15 09:20:21;;;;;;;7.35;4.10;;;;;;;14.17;85.86;100965.13;4934673;29;20078;-69
2023/09/15 09:23:27;;;;;;;6.15;3.42;;;;;;;14.46;85.20;100965.16;4935710;29;20135;-69
2023/09/15 09:26:34;;;;;;;9.05;4.22;;;;;;;14.64;84.39;100969.31;4901259;29;20179;-69
2023/09/15 09:29:38;;;;;;;9.65;4.22;;;;;;;14.71;83.74;100953.97;4916981;29;20511;-69
2023/09/15 09:32:41;;;;;;;6.32;3.83;;;;;;;14.72;82.77;100960.09;4898116;29;20079;-69
2023/09/15 09:35:45;;;;;;;13.32;3.35;;;;;;;14.97;84.13;100959.38;4897964;29;20054;-69
2023/09/15 09:38:50;;;;;;;8.88;3.50;;;;;;;15.16;82.40;100948.50;4897476;29;20047;-69
2023/09/15 09:41:54;;;;;;;5.10;3.28;;;;;;;15.18;82.23;100939.53;4897627;29;20528;-69
2023/09/15 09:44:57;;;;;;;6.70;3.40;;;;;;;15.07;82.06;100929.72;4898030;29;20051;-69
2023/09/15 09:48:00;;;;;;;7.60;3.13;;;;;;;15.28;81.94;100937.16;4897663;29;20092;-70
2023/09/15 09:51:05;;;;;;;6.60;3.10;;;;;;;15.37;81.92;100931.28;4898583;29;20051;-70
2023/09/15 09:54:08;;;;;;;6.35;3.33;;;;;;;15.51;82.30;100922.50;4887084;29;20466;-69
2023/09/15 09:57:13;;;;;;;9.63;2.90;;;;;;;15.64;82.16;100927.78;4896603;29;20124;-69
2023/09/15 10:00:21;;;;;;;9.65;2.80;;;;;;;15.77;81.57;100918.13;4897855;29;20069;-69
2023/09/15 10:03:25;;;;;;;7.03;2.97;;;;;;;15.84;80.66;100910.66;4897359;29;20104;-69
2023/09/15 10:06:29;;;;;;;6.93;2.97;;;;;;;15.89;80.64;100908.53;4897576;29;20052;-70
2023/09/15 10:09:33;;;;;;;8.25;2.38;;;;;;;16.01;81.02;100911.16;4897492;29;20051;-69
2023/09/15 10:12:38;;;;;;;11.07;3.35;;;;;;;16.20;80.85;100905.44;4897690;29;20055;-70
2023/09/15 10:15:54;;;;;;;5.95;2.90;;;;;;;16.34;80.52;100901.03;4898046;29;20091;-69
2023/09/15 10:19:03;;;;;;;6.13;2.72;;;;;;;16.50;80.32;100897.19;4897825;29;20063;-75
2023/09/15 10:22:11;;;;;;;7.40;2.40;;;;;;;16.73;79.71;100881.50;4895269;29;20049;-70
2023/09/15 10:25:21;;;;;;;5.45;3.00;;;;;;;16.79;79.09;100889.00;4895309;29;20344;-69
2023/09/15 10:28:24;;;;;;;4.43;2.78;;;;;;;16.90;79.40;100888.22;4895402;29;20111;-70
2023/09/15 10:31:29;;;;;;;7.70;2.58;;;;;;;16.98;78.09;100885.03;4895338;29;20047;-69
2023/09/15 10:34:33;;;;;;;5.80;2.60;;;;;;;17.02;77.29;100871.47;4895084;29;20063;-69
2023/09/15 10:37:43;;;;;;;5.43;2.20;;;;;;;17.14;77.86;100861.81;4894769;29;20665;-70
2023/09/15 10:40:49;;;;;;;5.03;2.58;;;;;;;17.24;77.54;100861.94;4894718;29;20103;-69
2023/09/15 10:43:53;;;;;;;6.65;2.80;;;;;;;17.33;77.78;100864.75;4894667;29;20096;-69
2023/09/15 10:46:56;;;;;;;5.43;2.65;;;;;;;17.44;77.57;100856.84;4889711;29;20063;-69
2023/09/15 10:50:01;;;;;;;5.75;2.65;;;;;;;17.60;76.72;100845.94;4894940;29;20171;-69
2023/09/15 10:53:09;;;;;;;7.18;2.67;;;;;;;17.67;77.03;100841.84;4908426;29;20418;-70
2023/09/15 10:56:13;;;;;;;5.47;2.67;;;;;;;17.73;76.41;100839.69;4916054;29;20067;-67
2023/09/15 10:59:17;;;;;;;6.18;2.75;;;;;;;17.88;76.90;100833.25;4915909;29;20150;-67
2023/09/15 11:02:20;;;;;;;7.75;2.90;;;;;;;18.01;75.73;100827.84;4915712;29;21129;-66
2023/09/15 11:05:27;;;;;;;6.10;2.58;;;;;;;18.08;75.66;100821.94;4915682;29;20094;-68
2023/09/15 11:08:31;;;;;;;6.05;2.63;;;;;;;18.16;75.61;100821.34;4903941;29;20118;-68
2023/09/15 11:11:34;;;;;;;8.52;3.10;;;;;;;18.35;76.35;100810.97;4915671;29;20126;-69
2023/09/15 11:14:38;;;;;;;12.68;3.00;;;;;;;18.53;75.83;100813.94;4915460;29;20068;-68
2023/09/15 11:17:42;;;;;;;7.32;2.50;;;;;;;18.65;73.58;100811.25;4915418;29;20062;-68
2023/09/15 11:20:46;;;;;;;4.55;2.50;;;;;;;18.71;73.54;100795.69;4914991;29;20458;-68
2023/09/15 11:23:50;;;;;;;5.93;2.67;;;;;;;18.80;74.26;100800.28;4915304;29;20070;-68
2023/09/15 11:26:53;;;;;;;5.40;2.85;;;;;;;18.86;72.39;100798.06;4915359;29;20066;-68
2023/09/15 11:30:02;;;;;;;4.53;2.50;;;;;;;19.03;73.75;100801.00;4909865;29;20107;-68
2023/09/15 11:33:07;;;;;;;5.47;2.35;;;;;;;19.10;72.97;100793.38;4915128;29;20084;-68
2023/09/15 11:36:10;;;;;;;5.25;2.53;;;;;;;19.29;72.61;100785.56;4915466;29;20055;-68
2023/09/15 11:39:15;;;;;;;6.70;2.50;;;;;;;19.33;72.08;100790.59;4913560;29;20047;-68
2023/09/15 11:42:18;;;;;;;9.70;2.75;;;;;;;19.37;71.55;100781.41;4913928;29;20062;-68
2023/09/15 11:45:28;;;;;;;8.50;2.60;;;;;;;19.45;70.18;100776.31;4915229;29;20051;-68
2023/09/15 11:48:37;;;;;;;3.97;2.58;;;;;;;19.57;70.93;100775.25;4914753;29;20050;-68
2023/09/15 11:51:40;;;;;;;7.45;2.95;;;;;;;19.69;69.36;100765.44;4902043;29;20100;-64
2023/09/15 11:54:45;;;;;;;6.80;2.30;;;;;;;19.81;68.79;100771.47;4914714;29;20505;-64
2023/09/15 11:57:53;;;;;;;5.90;2.38;;;;;;;20.00;69.99;100763.56;4913378;29;20191;-64
2023/09/15 12:00:57;;;;;;;5.45;2.67;;;;;;;20.35;69.99;100760.44;4914370;29;20493;-69
2023/09/15 12:04:05;;;;;;;7.32;3.08;;;;;;;20.76;67.86;100753.22;4911701;29;20055;-68
2023/09/15 12:07:10;;;;;;;5.82;2.47;;;;;;;20.87;68.37;100752.25;4927146;29;20051;-68
2023/09/15 12:10:25;;;;;;;7.18;2.30;;;;;;;20.99;68.28;100752.94;4934034;29;20166;-68
2023/09/15 12:13:35;;;;;;;5.20;2.72;;;;;;;21.19;66.49;100746.59;4934433;29;20046;-69
2023/09/15 12:16:39;;;;;;;5.75;2.20;;;;;;;21.30;64.78;100737.63;4933981;29;20103;-69
2023/09/15 12:19:43;;;;;;;5.55;2.28;;;;;;;21.49;65.00;100734.91;4933326;29;20062;-68
2023/09/15 12:22:47;;;;;;;10.40;2.83;;;;;;;21.57;62.57;100727.06;4933790;29;20083;-68
2023/09/15 12:25:51;;;;;;;7.20;2.65;;;;;;;21.92;62.75;100721.97;4933737;29;20051;-68
2023/09/15 12:28:59;;;;;;;5.53;2.53;;;;;;;22.22;60.49;100723.50;4900616;29;20047;-69
2023/09/15 12:32:07;;;;;;;6.80;3.35;;;;;;;22.20;61.51;100720.97;4914421;29;20095;-75
2023/09/15 12:35:30;;;;;;;4.50;1.95;;;;;;;22.42;60.32;100711.69;4915647;29;20063;-69
2023/09/15 12:39:04;;;;;;;4.40;2.60;;;;;;;23.17;60.00;100711.31;4915785;29;20060;-75
2023/09/15 12:42:43;;;;;;;4.35;2.53;;;;;;;24.08;56.48;100697.38;4904137;29;20047;-69
2023/09/15 12:45:46;;;;;;;5.18;2.13;;;;;;;24.30;53.67;100695.91;4918534;29;20055;-70
2023/09/15 12:48:51;;;;;;;5.53;2.28;;;;;;;24.53;51.97;100698.78;4918492;29;20423;-69
2023/09/15 12:51:54;;;;;;;5.05;2.03;;;;;;;25.10;50.09;100692.56;4918297;29;20091;-70
2023/09/15 12:54:58;;;;;;;5.45;2.25;;;;;;;23.99;54.14;100679.66;4913484;29;20048;-69
2023/09/15 12:58:01;;;;;;;4.88;2.30;;;;;;;24.73;53.06;100678.75;4907299;29;20043;-70
2023/09/15 13:01:04;;;;;;;5.18;2.60;;;;;;;25.32;49.65;100667.75;4917991;29;20050;-68
2023/09/15 13:04:07;;;;;;;3.63;1.98;;;;;;;25.90;48.64;100657.63;4905862;29;20055;-68
2023/09/15 13:07:13;;;;;;;3.95;2.00;;;;;;;26.48;47.43;100656.22;4918152;29;20092;-69
2023/09/15 13:10:20;;;;;;;3.60;1.80;;;;;;;27.06;45.59;100643.94;4918264;29;20050;-69
2023/09/15 13:13:23;;;;;;;7.35;2.75;;;;;;;26.71;44.90;100642.81;4917780;29;20090;-70
2023/09/15 13:16:28;;;;;;;7.60;2.58;;;;;;;27.87;43.53;100637.75;4917819;29;20046;-71
2023/09/15 13:19:31;;;;;;;3.88;2.10;;;;;;;29.04;41.59;100640.84;4917576;29;20058;-70
2023/09/15 13:22:36;;;;;;;5.05;2.13;;;;;;;30.54;39.17;100634.44;4917578;29;20051;-70
2023/09/15 13:25:43;;;;;;;4.20;2.08;;;;;;;32.47;32.15;100630.94;4917771;29;20062;-70
2023/09/15 13:28:47;;;;;;;4.15;2.08;;;;;;;35.65;27.71;100615.50;4917711;29;20183;-70
2023/09/15 13:31:51;;;;;;;5.53;2.13;;;;;;;36.93;26.68;100604.75;4917516;29;20469;-70
2023/09/15 13:34:55;;;;;;;3.17;1.67;;;;;;;37.50;24.30;100604.41;4904771;29;20564;-69
2023/09/15 13:37:58;;;;;;;3.58;1.85;;;;;;;36.78;25.19;100592.56;4917363;29;20043;-68
2023/09/15 13:41:05;;;;;;;3.75;2.00;;;;;;;38.09;23.21;100593.47;4917514;29;20138;-68
2023/09/15 13:44:08;;;;;;;5.18;2.05;;;;;;;39.00;23.53;100583.41;4917018;29;20523;-68
2023/09/15 13:47:14;;;;;;;3.45;2.00;;;;;;;40.34;22.25;100583.34;4917329;29;20538;-69
2023/09/15 13:50:20;;;;;;;2.65;1.77;;;;;;;39.74;20.81;100585.81;4917089;29;20051;-69
2023/09/15 13:53:23;;;;;;;2.92;1.83;;;;;;;39.91;20.14;100576.50;4916795;29;20051;-68
2023/09/15 13:56:26;;;;;;;4.13;1.58;;;;;;;40.24;19.41;100560.59;4917015;29;20431;-69
2023/09/15 13:59:29;;;;;;;5.70;1.60;;;;;;;39.49;18.70;100561.94;4916893;29;20446;-68
2023/09/15 14:02:38;;;;;;;2.35;1.50;;;;;;;39.22;19.61;100559.41;4916877;29;20418;-68
2023/09/15 14:05:42;;;;;;;4.30;1.42;;;;;;;40.62;19.47;100564.63;4917071;29;20140;-68
2023/09/15 14:08:45;;;;;;;2.50;1.67;;;;;;;41.14;19.41;100560.59;4916962;29;20103;-68
2023/09/15 14:11:57;;;;;;;7.53;1.73;;;;;;;41.52;18.06;100555.44;4915350;29;20131;-69
2023/09/15 14:15:02;;;;;;;;;;;;;;;42.46;17.23;100547.72;4917182;29;20055;-69
2023/09/15 14:18:07;;;;;;;2.80;1.55;;;;;;;43.09;16.65;100546.66;4916730;29;19961;-68
2023/09/15 14:21:11;;;;;;;2.65;1.50;;;;;;;43.23;17.05;100541.25;4916609;29;20424;-69
2023/09/15 14:24:15;;;;;;;2.80;1.70;;;;;;;43.15;16.50;100531.75;4916356;29;20055;-70
2023/09/15 14:27:19;;;;;;;4.57;1.48;;;;;;;42.59;17.33;100532.44;4915802;29;20067;-70
2023/09/15 14:30:24;;;;;;;2.55;1.50;;;;;;;42.84;15.91;100536.81;4916452;29;20063;-70
2023/09/15 14:33:28;;;;;;;3.05;1.55;;;;;;;42.66;16.10;100538.38;4916000;29;20095;-70
2023/09/15 14:36:31;;;;;;;3.13;1.60;;;;;;;42.67;17.62;100525.50;4916150;29;20088;-69
2023/09/15 14:39:35;;;;;;;3.53;1.10;;;;;;;41.81;17.92;100531.59;4916290;29;20100;-69
2023/09/15 14:42:39;;;;;;;4.47;1.33;;;;;;;41.23;17.96;100534.22;4916353;29;20127;-69
2023/09/15 14:45:44;;;;;;;2.97;1.13;;;;;;;41.63;17.45;100529.53;4914563;29;20159;-69